sensor_id;sensor_type;location;lat;lon;timestamp;P1;durP1;ratioP1;P2;durP2;ratioP2
8675;SDS011;4375;52.486;13.424;2023-12-07T00:01:25;38.00;;;15.17;;
8675;SDS011;4375;52.486;13.424;2023-12-07T00:03:51;33.50;;;15.57;;
8675;SDS011;4375;52.486;13.424;2023-12-07T00:06:17;34.40;;;15.10;;
8675;SDS011;4375;52.486;13.424;2023-12-07T00:08:42;34.50;;;15.70;;
8675;SDS011;4375;52.486;13.424;2023-12-07T00:11:08;32.67;;;14.20;;
8675;SDS011;4375;52.486;13.424;2023-12-07T00:13:34;34.33;;;15.03;;
8675;SDS011;4375;52.486;13.424;2023-12-07T00:15:59;33.63;;;14.20;;
8675;SDS011;4375;52.486;13.424;2023-12-07T00:18:25;35.90;;;14.90;;
8675;SDS011;4375;52.486;13.424;2023-12-07T00:20:51;35.47;;;14.50;;
8675;SDS011;4375;52.486;13.424;2023-12-07T00:23:16;33.47;;;14.60;;
8675;SDS011;4375;52.486;13.424;2023-12-07T00:25:42;34.30;;;14.73;;
8675;SDS011;4375;52.486;13.424;2023-12-07T00:28:08;35.20;;;15.60;;
8675;SDS011;4375;52.486;13.424;2023-12-07T00:30:33;36.53;;;15.43;;
8675;SDS011;4375;52.486;13.424;2023-12-07T00:32:59;31.53;;;14.50;;
8675;SDS011;4375;52.486;13.424;2023-12-07T00:35:25;38.67;;;16.43;;
8675;SDS011;4375;52.486;13.424;2023-12-07T00:37:53;33.60;;;13.90;;
8675;SDS011;4375;52.486;13.424;2023-12-07T00:40:23;33.67;;;15.07;;
8675;SDS011;4375;52.486;13.424;2023-12-07T00:42:49;35.63;;;15.80;;
8675;SDS011;4375;52.486;13.424;2023-12-07T00:45:15;33.27;;;15.97;;
8675;SDS011;4375;52.486;13.424;2023-12-07T00:47:40;34.70;;;14.97;;
8675;SDS011;4375;52.486;13.424;2023-12-07T00:50:07;40.07;;;15.97;;
8675;SDS011;4375;52.486;13.424;2023-12-07T00:52:33;37.77;;;17.00;;
8675;SDS011;4375;52.486;13.424;2023-12-07T00:54:58;33.37;;;15.30;;
8675;SDS011;4375;52.486;13.424;2023-12-07T00:57:24;33.63;;;14.70;;
8675;SDS011;4375;52.486;13.424;2023-12-07T00:59:50;36.53;;;14.90;;
8675;SDS011;4375;52.486;13.424;2023-12-07T01:02:15;34.50;;;15.60;;
8675;SDS011;4375;52.486;13.424;2023-12-07T01:04:41;36.73;;;16.33;;
8675;SDS011;4375;52.486;13.424;2023-12-07T01:07:07;35.23;;;14.13;;
8675;SDS011;4375;52.486;13.424;2023-12-07T01:09:33;36.03;;;15.13;;
8675;SDS011;4375;52.486;13.424;2023-12-07T01:11:58;36.50;;;14.77;;
8675;SDS011;4375;52.486;13.424;2023-12-07T01:14:24;32.63;;;13.90;;
8675;SDS011;4375;52.486;13.424;2023-12-07T01:16:50;35.67;;;14.93;;
8675;SDS011;4375;52.486;13.424;2023-12-07T01:19:15;34.80;;;14.60;;
8675;SDS011;4375;52.486;13.424;2023-12-07T01:21:41;34.10;;;14.77;;
8675;SDS011;4375;52.486;13.424;2023-12-07T01:24:07;33.07;;;14.37;;
8675;SDS011;4375;52.486;13.424;2023-12-07T01:26:33;37.60;;;14.57;;
8675;SDS011;4375;52.486;13.424;2023-12-07T01:28:59;33.33;;;15.40;;
8675;SDS011;4375;52.486;13.424;2023-12-07T01:31:25;34.50;;;14.67;;
8675;SDS011;4375;52.486;13.424;2023-12-07T01:33:51;37.93;;;14.90;;
8675;SDS011;4375;52.486;13.424;2023-12-07T01:36:16;33.20;;;15.10;;
8675;SDS011;4375;52.486;13.424;2023-12-07T01:38:42;33.67;;;14.83;;
8675;SDS011;4375;52.486;13.424;2023-12-07T01:41:08;35.97;;;15.43;;
8675;SDS011;4375;52.486;13.424;2023-12-07T01:43:34;35.80;;;16.20;;
8675;SDS011;4375;52.486;13.424;2023-12-07T01:46:00;33.97;;;16.20;;
8675;SDS011;4375;52.486;13.424;2023-12-07T01:48:26;33.40;;;14.27;;
8675;SDS011;4375;52.486;13.424;2023-12-07T01:50:54;32.67;;;13.40;;
8675;SDS011;4375;52.486;13.424;2023-12-07T01:53:23;34.37;;;16.03;;
8675;SDS011;4375;52.486;13.424;2023-12-07T01:55:51;35.57;;;15.00;;
8675;SDS011;4375;52.486;13.424;2023-12-07T01:58:18;35.27;;;15.00;;
8675;SDS011;4375;52.486;13.424;2023-12-07T02:00:46;30.97;;;13.43;;
8675;SDS011;4375;52.486;13.424;2023-12-07T02:03:12;33.77;;;13.70;;
8675;SDS011;4375;52.486;13.424;2023-12-07T02:05:40;34.37;;;14.87;;
8675;SDS011;4375;52.486;13.424;2023-12-07T02:08:08;32.60;;;14.40;;
8675;SDS011;4375;52.486;13.424;2023-12-07T02:10:34;32.83;;;13.77;;
8675;SDS011;4375;52.486;13.424;2023-12-07T02:13:00;36.30;;;14.90;;
8675;SDS011;4375;52.486;13.424;2023-12-07T02:15:26;32.40;;;14.43;;
8675;SDS011;4375;52.486;13.424;2023-12-07T02:18:14;32.70;;;14.43;;
8675;SDS011;4375;52.486;13.424;2023-12-07T02:23:32;33.83;;;14.73;;
8675;SDS011;4375;52.486;13.424;2023-12-07T02:26:02;32.83;;;13.90;;
8675;SDS011;4375;52.486;13.424;2023-12-07T02:28:28;32.93;;;14.17;;
8675;SDS011;4375;52.486;13.424;2023-12-07T02:30:54;32.80;;;14.20;;
8675;SDS011;4375;52.486;13.424;2023-12-07T02:33:19;35.93;;;16.10;;
8675;SDS011;4375;52.486;13.424;2023-12-07T02:35:46;32.90;;;13.97;;
8675;SDS011;4375;52.486;13.424;2023-12-07T02:38:11;32.13;;;14.23;;
8675;SDS011;4375;52.486;13.424;2023-12-07T02:40:38;36.53;;;17.00;;
8675;SDS011;4375;52.486;13.424;2023-12-07T02:43:05;32.93;;;13.37;;
8675;SDS011;4375;52.486;13.424;2023-12-07T02:45:32;34.17;;;14.77;;
8675;SDS011;4375;52.486;13.424;2023-12-07T02:47:59;34.00;;;15.10;;
8675;SDS011;4375;52.486;13.424;2023-12-07T02:50:25;36.10;;;14.40;;
8675;SDS011;4375;52.486;13.424;2023-12-07T02:52:50;31.90;;;12.93;;
8675;SDS011;4375;52.486;13.424;2023-12-07T02:55:16;30.13;;;12.70;;
8675;SDS011;4375;52.486;13.424;2023-12-07T02:57:42;33.90;;;14.93;;
8675;SDS011;4375;52.486;13.424;2023-12-07T03:00:08;35.50;;;14.87;;
8675;SDS011;4375;52.486;13.424;2023-12-07T03:02:35;33.33;;;13.83;;
8675;SDS011;4375;52.486;13.424;2023-12-07T03:05:02;31.03;;;13.40;;
8675;SDS011;4375;52.486;13.424;2023-12-07T03:07:28;35.13;;;15.17;;
8675;SDS011;4375;52.486;13.424;2023-12-07T03:09:54;35.70;;;14.53;;
8675;SDS011;4375;52.486;13.424;2023-12-07T03:12:20;32.60;;;13.97;;
8675;SDS011;4375;52.486;13.424;2023-12-07T03:14:46;35.50;;;15.07;;
8675;SDS011;4375;52.486;13.424;2023-12-07T03:17:11;32.40;;;14.23;;
8675;SDS011;4375;52.486;13.424;2023-12-07T03:19:38;34.33;;;13.90;;
8675;SDS011;4375;52.486;13.424;2023-12-07T03:22:05;35.30;;;15.37;;
8675;SDS011;4375;52.486;13.424;2023-12-07T03:24:32;32.67;;;15.20;;
8675;SDS011;4375;52.486;13.424;2023-12-07T03:26:58;36.43;;;15.90;;
8675;SDS011;4375;52.486;13.424;2023-12-07T03:29:24;32.93;;;14.70;;
8675;SDS011;4375;52.486;13.424;2023-12-07T03:31:50;34.13;;;14.13;;
8675;SDS011;4375;52.486;13.424;2023-12-07T03:34:15;32.60;;;14.83;;
8675;SDS011;4375;52.486;13.424;2023-12-07T03:36:42;36.20;;;16.27;;
8675;SDS011;4375;52.486;13.424;2023-12-07T03:39:11;33.20;;;13.93;;
8675;SDS011;4375;52.486;13.424;2023-12-07T03:41:38;35.57;;;14.90;;
8675;SDS011;4375;52.486;13.424;2023-12-07T03:44:04;35.60;;;15.87;;
8675;SDS011;4375;52.486;13.424;2023-12-07T03:46:29;36.10;;;14.60;;
8675;SDS011;4375;52.486;13.424;2023-12-07T03:48:55;34.70;;;14.37;;
8675;SDS011;4375;52.486;13.424;2023-12-07T03:51:20;33.00;;;13.80;;
8675;SDS011;4375;52.486;13.424;2023-12-07T03:53:46;38.73;;;16.83;;
8675;SDS011;4375;52.486;13.424;2023-12-07T03:56:22;34.00;;;15.00;;
8675;SDS011;4375;52.486;13.424;2023-12-07T03:58:48;36.07;;;16.53;;
8675;SDS011;4375;52.486;13.424;2023-12-07T04:01:14;34.97;;;14.33;;
8675;SDS011;4375;52.486;13.424;2023-12-07T04:03:40;37.90;;;14.80;;
8675;SDS011;4375;52.486;13.424;2023-12-07T04:06:05;35.17;;;15.30;;
8675;SDS011;4375;52.486;13.424;2023-12-07T04:08:31;35.50;;;15.10;;
8675;SDS011;4375;52.486;13.424;2023-12-07T04:10:57;35.30;;;15.60;;
8675;SDS011;4375;52.486;13.424;2023-12-07T04:13:22;37.67;;;16.53;;
8675;SDS011;4375;52.486;13.424;2023-12-07T04:15:48;38.23;;;17.47;;
8675;SDS011;4375;52.486;13.424;2023-12-07T04:18:14;37.40;;;15.07;;
8675;SDS011;4375;52.486;13.424;2023-12-07T04:20:39;42.23;;;17.53;;
8675;SDS011;4375;52.486;13.424;2023-12-07T04:23:05;39.40;;;17.37;;
8675;SDS011;4375;52.486;13.424;2023-12-07T04:25:30;39.17;;;15.80;;
8675;SDS011;4375;52.486;13.424;2023-12-07T04:27:56;39.30;;;16.03;;
8675;SDS011;4375;52.486;13.424;2023-12-07T04:30:22;38.17;;;15.73;;
8675;SDS011;4375;52.486;13.424;2023-12-07T04:32:47;43.53;;;18.60;;
8675;SDS011;4375;52.486;13.424;2023-12-07T04:35:13;38.83;;;16.97;;
8675;SDS011;4375;52.486;13.424;2023-12-07T04:37:39;42.87;;;16.87;;
8675;SDS011;4375;52.486;13.424;2023-12-07T04:40:05;42.30;;;17.73;;
8675;SDS011;4375;52.486;13.424;2023-12-07T04:42:31;39.50;;;17.10;;
8675;SDS011;4375;52.486;13.424;2023-12-07T04:44:59;38.80;;;16.90;;
8675;SDS011;4375;52.486;13.424;2023-12-07T04:47:28;40.63;;;18.50;;
8675;SDS011;4375;52.486;13.424;2023-12-07T04:49:54;44.07;;;19.20;;
8675;SDS011;4375;52.486;13.424;2023-12-07T04:52:20;40.03;;;17.53;;
8675;SDS011;4375;52.486;13.424;2023-12-07T04:54:45;41.60;;;18.57;;
8675;SDS011;4375;52.486;13.424;2023-12-07T04:57:11;41.50;;;17.07;;
8675;SDS011;4375;52.486;13.424;2023-12-07T04:59:37;44.50;;;18.43;;
8675;SDS011;4375;52.486;13.424;2023-12-07T05:02:02;41.93;;;18.20;;
8675;SDS011;4375;52.486;13.424;2023-12-07T05:04:28;39.77;;;16.20;;
8675;SDS011;4375;52.486;13.424;2023-12-07T05:06:54;41.67;;;18.53;;
8675;SDS011;4375;52.486;13.424;2023-12-07T05:09:20;41.63;;;17.63;;
8675;SDS011;4375;52.486;13.424;2023-12-07T05:11:46;43.20;;;17.83;;
8675;SDS011;4375;52.486;13.424;2023-12-07T05:14:12;38.07;;;16.83;;
8675;SDS011;4375;52.486;13.424;2023-12-07T05:16:41;42.70;;;18.10;;
8675;SDS011;4375;52.486;13.424;2023-12-07T05:19:06;44.90;;;18.80;;
8675;SDS011;4375;52.486;13.424;2023-12-07T05:21:32;45.20;;;19.00;;
8675;SDS011;4375;52.486;13.424;2023-12-07T05:23:57;46.67;;;17.53;;
8675;SDS011;4375;52.486;13.424;2023-12-07T05:26:23;47.77;;;18.67;;
8675;SDS011;4375;52.486;13.424;2023-12-07T05:28:49;46.90;;;17.67;;
8675;SDS011;4375;52.486;13.424;2023-12-07T05:31:17;49.23;;;19.57;;
8675;SDS011;4375;52.486;13.424;2023-12-07T05:34:04;46.90;;;17.60;;
8675;SDS011;4375;52.486;13.424;2023-12-07T05:44:20;42.50;;;17.13;;
8675;SDS011;4375;52.486;13.424;2023-12-07T06:10:30;45.87;;;18.43;;
8675;SDS011;4375;52.486;13.424;2023-12-07T06:13:46;42.07;;;18.17;;
8675;SDS011;4375;52.486;13.424;2023-12-07T06:20:46;46.67;;;18.93;;
8675;SDS011;4375;52.486;13.424;2023-12-07T06:27:25;45.30;;;17.23;;
8675;SDS011;4375;52.486;13.424;2023-12-07T06:30:30;45.47;;;18.40;;
8675;SDS011;4375;52.486;13.424;2023-12-07T06:34:09;44.10;;;18.13;;
8675;SDS011;4375;52.486;13.424;2023-12-07T06:51:17;41.60;;;17.07;;
8675;SDS011;4375;52.486;13.424;2023-12-07T07:04:18;39.80;;;15.03;;
8675;SDS011;4375;52.486;13.424;2023-12-07T07:06:44;45.67;;;16.33;;
8675;SDS011;4375;52.486;13.424;2023-12-07T07:09:09;40.33;;;15.90;;
8675;SDS011;4375;52.486;13.424;2023-12-07T07:11:35;45.70;;;16.80;;
8675;SDS011;4375;52.486;13.424;2023-12-07T07:14:02;42.70;;;15.90;;
8675;SDS011;4375;52.486;13.424;2023-12-07T07:16:27;43.53;;;16.80;;
8675;SDS011;4375;52.486;13.424;2023-12-07T07:18:53;43.00;;;16.63;;
8675;SDS011;4375;52.486;13.424;2023-12-07T07:21:19;43.30;;;16.43;;
8675;SDS011;4375;52.486;13.424;2023-12-07T07:23:44;43.27;;;16.37;;
8675;SDS011;4375;52.486;13.424;2023-12-07T07:26:10;41.73;;;15.80;;
8675;SDS011;4375;52.486;13.424;2023-12-07T07:28:36;43.37;;;15.73;;
8675;SDS011;4375;52.486;13.424;2023-12-07T07:31:02;50.63;;;18.33;;
8675;SDS011;4375;52.486;13.424;2023-12-07T07:33:27;42.67;;;16.73;;
8675;SDS011;4375;52.486;13.424;2023-12-07T07:35:53;49.17;;;18.27;;
8675;SDS011;4375;52.486;13.424;2023-12-07T07:38:19;44.80;;;19.03;;
8675;SDS011;4375;52.486;13.424;2023-12-07T07:40:44;40.17;;;16.53;;
8675;SDS011;4375;52.486;13.424;2023-12-07T07:43:12;48.90;;;17.70;;
8675;SDS011;4375;52.486;13.424;2023-12-07T07:45:38;43.53;;;17.97;;
8675;SDS011;4375;52.486;13.424;2023-12-07T07:48:03;45.73;;;16.27;;
8675;SDS011;4375;52.486;13.424;2023-12-07T07:50:29;42.40;;;15.50;;
8675;SDS011;4375;52.486;13.424;2023-12-07T07:52:55;42.20;;;16.77;;
8675;SDS011;4375;52.486;13.424;2023-12-07T07:55:21;40.27;;;15.07;;
8675;SDS011;4375;52.486;13.424;2023-12-07T07:57:46;40.83;;;17.20;;
8675;SDS011;4375;52.486;13.424;2023-12-07T08:00:12;48.20;;;16.50;;
8675;SDS011;4375;52.486;13.424;2023-12-07T08:02:38;46.03;;;17.50;;
8675;SDS011;4375;52.486;13.424;2023-12-07T08:05:04;43.40;;;16.30;;
8675;SDS011;4375;52.486;13.424;2023-12-07T08:07:30;41.83;;;15.50;;
8675;SDS011;4375;52.486;13.424;2023-12-07T08:09:56;44.20;;;17.00;;
8675;SDS011;4375;52.486;13.424;2023-12-07T08:12:21;44.60;;;16.73;;
8675;SDS011;4375;52.486;13.424;2023-12-07T08:14:50;45.30;;;19.10;;
8675;SDS011;4375;52.486;13.424;2023-12-07T08:17:19;45.60;;;18.23;;
8675;SDS011;4375;52.486;13.424;2023-12-07T08:19:54;44.47;;;16.80;;
8675;SDS011;4375;52.486;13.424;2023-12-07T08:22:31;46.37;;;17.93;;
8675;SDS011;4375;52.486;13.424;2023-12-07T08:24:57;42.60;;;17.97;;
8675;SDS011;4375;52.486;13.424;2023-12-07T08:27:23;47.30;;;18.13;;
8675;SDS011;4375;52.486;13.424;2023-12-07T08:29:49;46.40;;;17.30;;
8675;SDS011;4375;52.486;13.424;2023-12-07T08:32:15;52.07;;;19.53;;
8675;SDS011;4375;52.486;13.424;2023-12-07T08:35:05;43.30;;;17.50;;
8675;SDS011;4375;52.486;13.424;2023-12-07T08:47:36;41.37;;;16.93;;
8675;SDS011;4375;52.486;13.424;2023-12-07T08:50:31;42.00;;;17.70;;
8675;SDS011;4375;52.486;13.424;2023-12-07T09:00:12;39.40;;;16.87;;
8675;SDS011;4375;52.486;13.424;2023-12-07T09:03:08;41.40;;;17.40;;
8675;SDS011;4375;52.486;13.424;2023-12-07T09:06:02;42.47;;;16.93;;
8675;SDS011;4375;52.486;13.424;2023-12-07T09:08:38;38.07;;;15.97;;
8675;SDS011;4375;52.486;13.424;2023-12-07T09:11:04;41.57;;;15.63;;
8675;SDS011;4375;52.486;13.424;2023-12-07T09:13:30;43.90;;;17.83;;
8675;SDS011;4375;52.486;13.424;2023-12-07T09:15:55;45.27;;;18.80;;
8675;SDS011;4375;52.486;13.424;2023-12-07T09:18:21;39.30;;;17.17;;
8675;SDS011;4375;52.486;13.424;2023-12-07T09:20:47;42.43;;;17.07;;
8675;SDS011;4375;52.486;13.424;2023-12-07T09:25:49;42.37;;;16.90;;
8675;SDS011;4375;52.486;13.424;2023-12-07T09:28:17;40.80;;;15.80;;
8675;SDS011;4375;52.486;13.424;2023-12-07T09:31:28;43.70;;;17.27;;
8675;SDS011;4375;52.486;13.424;2023-12-07T09:34:23;40.27;;;15.80;;
8675;SDS011;4375;52.486;13.424;2023-12-07T10:15:27;42.57;;;15.97;;
8675;SDS011;4375;52.486;13.424;2023-12-07T10:17:54;47.23;;;16.77;;
8675;SDS011;4375;52.486;13.424;2023-12-07T10:20:29;42.07;;;16.80;;
8675;SDS011;4375;52.486;13.424;2023-12-07T10:27:02;81.40;;;20.00;;
8675;SDS011;4375;52.486;13.424;2023-12-07T10:29:34;49.03;;;17.80;;
8675;SDS011;4375;52.486;13.424;2023-12-07T10:32:14;44.57;;;17.30;;
8675;SDS011;4375;52.486;13.424;2023-12-07T10:34:55;51.37;;;16.63;;
8675;SDS011;4375;52.486;13.424;2023-12-07T10:37:26;50.53;;;15.60;;
8675;SDS011;4375;52.486;13.424;2023-12-07T10:39:54;46.33;;;17.40;;
8675;SDS011;4375;52.486;13.424;2023-12-07T10:42:21;41.87;;;17.07;;
8675;SDS011;4375;52.486;13.424;2023-12-07T10:44:50;42.93;;;16.23;;
8675;SDS011;4375;52.486;13.424;2023-12-07T10:47:21;42.33;;;17.00;;
8675;SDS011;4375;52.486;13.424;2023-12-07T10:49:47;47.43;;;17.63;;
8675;SDS011;4375;52.486;13.424;2023-12-07T10:52:20;42.33;;;16.67;;
8675;SDS011;4375;52.486;13.424;2023-12-07T10:57:21;44.40;;;15.20;;
8675;SDS011;4375;52.486;13.424;2023-12-07T10:59:47;40.87;;;16.47;;
8675;SDS011;4375;52.486;13.424;2023-12-07T11:02:15;41.40;;;14.87;;
8675;SDS011;4375;52.486;13.424;2023-12-07T11:38:38;35.87;;;14.90;;
8675;SDS011;4375;52.486;13.424;2023-12-07T11:41:28;37.27;;;14.87;;
8675;SDS011;4375;52.486;13.424;2023-12-07T11:43:57;35.97;;;14.40;;
8675;SDS011;4375;52.486;13.424;2023-12-07T11:46:23;36.50;;;14.77;;
8675;SDS011;4375;52.486;13.424;2023-12-07T11:48:49;34.03;;;13.83;;
8675;SDS011;4375;52.486;13.424;2023-12-07T11:51:15;39.80;;;14.87;;
8675;SDS011;4375;52.486;13.424;2023-12-07T11:53:41;39.80;;;15.67;;
8675;SDS011;4375;52.486;13.424;2023-12-07T11:56:08;39.50;;;16.97;;
8675;SDS011;4375;52.486;13.424;2023-12-07T11:58:38;39.40;;;15.27;;
8675;SDS011;4375;52.486;13.424;2023-12-07T12:01:04;43.93;;;17.17;;
8675;SDS011;4375;52.486;13.424;2023-12-07T12:03:30;39.00;;;15.60;;
8675;SDS011;4375;52.486;13.424;2023-12-07T12:05:57;36.97;;;15.70;;
8675;SDS011;4375;52.486;13.424;2023-12-07T12:08:23;41.07;;;16.70;;
8675;SDS011;4375;52.486;13.424;2023-12-07T12:10:49;43.97;;;18.07;;
8675;SDS011;4375;52.486;13.424;2023-12-07T12:13:18;42.40;;;16.73;;
8675;SDS011;4375;52.486;13.424;2023-12-07T12:15:44;45.10;;;17.80;;
8675;SDS011;4375;52.486;13.424;2023-12-07T12:18:11;39.30;;;16.70;;
8675;SDS011;4375;52.486;13.424;2023-12-07T12:20:38;41.00;;;17.30;;
8675;SDS011;4375;52.486;13.424;2023-12-07T12:23:05;45.13;;;19.70;;
8675;SDS011;4375;52.486;13.424;2023-12-07T12:25:30;40.33;;;17.40;;
8675;SDS011;4375;52.486;13.424;2023-12-07T12:28:05;42.63;;;18.23;;
8675;SDS011;4375;52.486;13.424;2023-12-07T12:30:32;45.93;;;19.10;;
8675;SDS011;4375;52.486;13.424;2023-12-07T12:32:58;45.20;;;21.20;;
8675;SDS011;4375;52.486;13.424;2023-12-07T12:35:27;45.63;;;19.70;;
8675;SDS011;4375;52.486;13.424;2023-12-07T12:37:54;46.57;;;19.03;;
8675;SDS011;4375;52.486;13.424;2023-12-07T12:40:22;47.27;;;19.70;;
8675;SDS011;4375;52.486;13.424;2023-12-07T12:42:49;44.17;;;18.47;;
8675;SDS011;4375;52.486;13.424;2023-12-07T12:45:16;44.30;;;19.13;;
8675;SDS011;4375;52.486;13.424;2023-12-07T12:47:46;49.67;;;21.47;;
8675;SDS011;4375;52.486;13.424;2023-12-07T12:50:31;48.20;;;20.90;;
8675;SDS011;4375;52.486;13.424;2023-12-07T12:53:07;54.27;;;21.50;;
8675;SDS011;4375;52.486;13.424;2023-12-07T12:55:35;51.20;;;21.00;;
8675;SDS011;4375;52.486;13.424;2023-12-07T12:58:08;51.33;;;21.60;;
8675;SDS011;4375;52.486;13.424;2023-12-07T13:00:34;47.13;;;19.40;;
8675;SDS011;4375;52.486;13.424;2023-12-07T13:03:04;50.60;;;20.13;;
8675;SDS011;4375;52.486;13.424;2023-12-07T13:05:30;49.70;;;20.87;;
8675;SDS011;4375;52.486;13.424;2023-12-07T13:08:00;49.33;;;21.40;;
8675;SDS011;4375;52.486;13.424;2023-12-07T13:10:26;47.30;;;21.07;;
8675;SDS011;4375;52.486;13.424;2023-12-07T13:12:52;46.90;;;21.30;;
8675;SDS011;4375;52.486;13.424;2023-12-07T13:15:18;52.40;;;20.20;;
8675;SDS011;4375;52.486;13.424;2023-12-07T13:17:43;49.47;;;21.10;;
8675;SDS011;4375;52.486;13.424;2023-12-07T13:20:10;52.67;;;21.77;;
8675;SDS011;4375;52.486;13.424;2023-12-07T13:22:37;51.00;;;21.93;;
8675;SDS011;4375;52.486;13.424;2023-12-07T13:25:03;53.10;;;23.40;;
8675;SDS011;4375;52.486;13.424;2023-12-07T13:27:32;66.47;;;22.47;;
8675;SDS011;4375;52.486;13.424;2023-12-07T13:29:58;48.87;;;22.20;;
8675;SDS011;4375;52.486;13.424;2023-12-07T13:32:24;54.10;;;22.37;;
8675;SDS011;4375;52.486;13.424;2023-12-07T13:34:50;52.47;;;22.07;;
8675;SDS011;4375;52.486;13.424;2023-12-07T13:37:15;57.07;;;23.77;;
8675;SDS011;4375;52.486;13.424;2023-12-07T13:39:41;55.63;;;22.60;;
8675;SDS011;4375;52.486;13.424;2023-12-07T13:42:08;52.87;;;22.30;;
8675;SDS011;4375;52.486;13.424;2023-12-07T13:44:35;56.17;;;22.67;;
8675;SDS011;4375;52.486;13.424;2023-12-07T13:47:01;62.33;;;23.20;;
8675;SDS011;4375;52.486;13.424;2023-12-07T13:49:27;50.57;;;21.60;;
8675;SDS011;4375;52.486;13.424;2023-12-07T13:51:52;63.03;;;25.73;;
8675;SDS011;4375;52.486;13.424;2023-12-07T13:54:18;57.23;;;25.97;;
8675;SDS011;4375;52.486;13.424;2023-12-07T13:56:43;51.50;;;22.40;;
8675;SDS011;4375;52.486;13.424;2023-12-07T13:59:09;63.90;;;23.73;;
8675;SDS011;4375;52.486;13.424;2023-12-07T14:01:37;59.07;;;23.00;;
8675;SDS011;4375;52.486;13.424;2023-12-07T14:04:04;62.87;;;24.90;;
8675;SDS011;4375;52.486;13.424;2023-12-07T14:06:31;54.03;;;21.60;;
8675;SDS011;4375;52.486;13.424;2023-12-07T14:09:00;57.00;;;24.03;;
8675;SDS011;4375;52.486;13.424;2023-12-07T14:11:25;59.50;;;25.03;;
8675;SDS011;4375;52.486;13.424;2023-12-07T14:13:51;59.10;;;25.60;;
8675;SDS011;4375;52.486;13.424;2023-12-07T14:16:19;63.20;;;24.27;;
8675;SDS011;4375;52.486;13.424;2023-12-07T14:18:45;71.03;;;26.97;;
8675;SDS011;4375;52.486;13.424;2023-12-07T14:21:11;61.13;;;24.30;;
8675;SDS011;4375;52.486;13.424;2023-12-07T14:23:39;63.67;;;26.27;;
8675;SDS011;4375;52.486;13.424;2023-12-07T14:26:05;61.57;;;24.40;;
8675;SDS011;4375;52.486;13.424;2023-12-07T14:28:30;68.57;;;27.90;;
8675;SDS011;4375;52.486;13.424;2023-12-07T14:30:58;64.87;;;24.73;;
8675;SDS011;4375;52.486;13.424;2023-12-07T14:33:24;65.90;;;27.50;;
8675;SDS011;4375;52.486;13.424;2023-12-07T14:35:50;62.90;;;25.80;;
8675;SDS011;4375;52.486;13.424;2023-12-07T14:38:15;60.60;;;23.10;;
8675;SDS011;4375;52.486;13.424;2023-12-07T14:40:41;59.23;;;25.47;;
8675;SDS011;4375;52.486;13.424;2023-12-07T14:43:07;65.30;;;27.60;;
8675;SDS011;4375;52.486;13.424;2023-12-07T14:45:33;57.90;;;24.30;;
8675;SDS011;4375;52.486;13.424;2023-12-07T14:47:58;60.43;;;25.80;;
8675;SDS011;4375;52.486;13.424;2023-12-07T14:50:24;65.13;;;26.17;;
8675;SDS011;4375;52.486;13.424;2023-12-07T14:52:49;60.20;;;26.03;;
8675;SDS011;4375;52.486;13.424;2023-12-07T14:55:15;63.80;;;23.57;;
8675;SDS011;4375;52.486;13.424;2023-12-07T14:57:43;65.83;;;25.67;;
8675;SDS011;4375;52.486;13.424;2023-12-07T15:00:09;76.07;;;23.07;;
8675;SDS011;4375;52.486;13.424;2023-12-07T15:02:35;63.20;;;25.70;;
8675;SDS011;4375;52.486;13.424;2023-12-07T15:05:01;64.23;;;23.30;;
8675;SDS011;4375;52.486;13.424;2023-12-07T15:07:27;66.73;;;25.03;;
8675;SDS011;4375;52.486;13.424;2023-12-07T15:09:53;56.83;;;23.40;;
8675;SDS011;4375;52.486;13.424;2023-12-07T15:12:19;57.60;;;24.23;;
8675;SDS011;4375;52.486;13.424;2023-12-07T15:14:45;71.03;;;25.47;;
8675;SDS011;4375;52.486;13.424;2023-12-07T15:17:11;67.43;;;26.07;;
8675;SDS011;4375;52.486;13.424;2023-12-07T15:19:37;68.97;;;28.20;;
8675;SDS011;4375;52.486;13.424;2023-12-07T15:22:03;64.43;;;24.67;;
8675;SDS011;4375;52.486;13.424;2023-12-07T15:24:28;64.50;;;26.13;;
8675;SDS011;4375;52.486;13.424;2023-12-07T15:26:55;68.23;;;27.20;;
8675;SDS011;4375;52.486;13.424;2023-12-07T15:29:20;69.50;;;28.27;;
8675;SDS011;4375;52.486;13.424;2023-12-07T15:31:46;65.30;;;28.27;;
8675;SDS011;4375;52.486;13.424;2023-12-07T15:34:12;75.23;;;29.77;;
8675;SDS011;4375;52.486;13.424;2023-12-07T15:36:37;84.17;;;29.10;;
8675;SDS011;4375;52.486;13.424;2023-12-07T15:39:03;78.10;;;30.93;;
8675;SDS011;4375;52.486;13.424;2023-12-07T15:41:29;80.73;;;30.27;;
8675;SDS011;4375;52.486;13.424;2023-12-07T15:43:54;94.37;;;30.90;;
8675;SDS011;4375;52.486;13.424;2023-12-07T15:46:20;90.77;;;33.27;;
8675;SDS011;4375;52.486;13.424;2023-12-07T15:48:46;96.33;;;30.67;;
8675;SDS011;4375;52.486;13.424;2023-12-07T15:51:12;105.83;;;33.10;;
8675;SDS011;4375;52.486;13.424;2023-12-07T15:53:38;88.63;;;29.37;;
8675;SDS011;4375;52.486;13.424;2023-12-07T15:56:04;85.73;;;30.27;;
8675;SDS011;4375;52.486;13.424;2023-12-07T15:58:30;88.70;;;29.20;;
8675;SDS011;4375;52.486;13.424;2023-12-07T16:00:55;80.93;;;30.00;;
8675;SDS011;4375;52.486;13.424;2023-12-07T16:03:21;92.40;;;30.90;;
8675;SDS011;4375;52.486;13.424;2023-12-07T16:05:47;86.73;;;30.57;;
8675;SDS011;4375;52.486;13.424;2023-12-07T16:08:12;101.07;;;30.83;;
8675;SDS011;4375;52.486;13.424;2023-12-07T16:10:38;104.63;;;28.70;;
8675;SDS011;4375;52.486;13.424;2023-12-07T16:13:04;104.17;;;29.97;;
8675;SDS011;4375;52.486;13.424;2023-12-07T16:15:29;98.50;;;28.70;;
8675;SDS011;4375;52.486;13.424;2023-12-07T16:17:55;93.50;;;28.50;;
8675;SDS011;4375;52.486;13.424;2023-12-07T16:20:21;91.17;;;28.87;;
8675;SDS011;4375;52.486;13.424;2023-12-07T16:22:46;88.27;;;26.80;;
8675;SDS011;4375;52.486;13.424;2023-12-07T16:25:12;89.63;;;28.37;;
8675;SDS011;4375;52.486;13.424;2023-12-07T16:27:38;90.93;;;29.70;;
8675;SDS011;4375;52.486;13.424;2023-12-07T16:30:04;93.67;;;29.40;;
8675;SDS011;4375;52.486;13.424;2023-12-07T16:32:32;101.73;;;29.10;;
8675;SDS011;4375;52.486;13.424;2023-12-07T16:34:58;86.17;;;28.50;;
8675;SDS011;4375;52.486;13.424;2023-12-07T16:37:24;89.20;;;28.03;;
8675;SDS011;4375;52.486;13.424;2023-12-07T16:39:50;99.77;;;27.10;;
8675;SDS011;4375;52.486;13.424;2023-12-07T16:42:16;97.23;;;28.37;;
8675;SDS011;4375;52.486;13.424;2023-12-07T16:44:41;93.70;;;27.27;;
8675;SDS011;4375;52.486;13.424;2023-12-07T16:47:09;84.20;;;26.23;;
8675;SDS011;4375;52.486;13.424;2023-12-07T16:49:34;94.03;;;27.07;;
8675;SDS011;4375;52.486;13.424;2023-12-07T16:52:00;83.10;;;24.20;;
8675;SDS011;4375;52.486;13.424;2023-12-07T16:54:26;68.77;;;22.97;;
8675;SDS011;4375;52.486;13.424;2023-12-07T16:56:52;76.67;;;25.00;;
8675;SDS011;4375;52.486;13.424;2023-12-07T16:59:18;79.13;;;22.03;;
8675;SDS011;4375;52.486;13.424;2023-12-07T17:01:44;68.07;;;23.97;;
8675;SDS011;4375;52.486;13.424;2023-12-07T17:04:09;60.60;;;22.67;;
8675;SDS011;4375;52.486;13.424;2023-12-07T17:06:35;68.97;;;22.90;;
8675;SDS011;4375;52.486;13.424;2023-12-07T17:09:01;75.73;;;23.70;;
8675;SDS011;4375;52.486;13.424;2023-12-07T17:11:28;68.73;;;22.93;;
8675;SDS011;4375;52.486;13.424;2023-12-07T17:13:53;72.50;;;24.30;;
8675;SDS011;4375;52.486;13.424;2023-12-07T17:16:19;66.57;;;23.20;;
8675;SDS011;4375;52.486;13.424;2023-12-07T17:18:45;59.63;;;19.40;;
8675;SDS011;4375;52.486;13.424;2023-12-07T17:21:10;55.30;;;19.03;;
8675;SDS011;4375;52.486;13.424;2023-12-07T17:23:36;55.30;;;18.43;;